首页
METAR-TAF:

METAR-TAF

机场 :

哈里斯堡 / Middletown, 宾夕法尼亚州, 美国

纬度: 40-11-37N, 经度: 076-45-48W, 海拔: 95米

当前天气观测

该预报发布于1小时和11分钟前的04:56 UTC
风速7节,风向西北
温度 5°C
湿度 48%
气压 1012 hPa
能見度: 16.1公里
天空无云

METAR: KMDT 020456Z 32007KT 10SM CLR 05/M05 A2989 RMK AO2 SLP123 T00501050 401280050

时间: 02:07 (06:07 UTC)

预报

该预报发布于47分钟前的05:20 UTC
预报有效从02日的 06点(UTC)到 03日的 06点(UTC)
风速8节,风向西北
能見度: 10公里
天空无云
从 02日的 1300点(UTC)
风速17节,风向西北,有时为27节阵风
能見度: 10公里
多云层高于5000英尺

TAF: KMDT 020520Z 0206/0306 32008KT P6SM SKC FM021300 32017G27KT P6SM BKN050

超过4000个机场的气象观测和天气预报(METAR&TAF报告)。

可查询的气象台以黄色和红色小点在地图上表示。

将鼠标移到小点上方,可查看气象台名称。

然后点击查看天气观测和预报。

如需切换地图:点击带黑十字的绿色按钮放大地图;点击带横线的绿色按钮缩小地图;或者点击绿色箭头查看邻近地区的地图。


METAR-TAF: